Aviation Digital Data Service (ADDS)

Output produced by METARs form (0523 UTC 25 September 2016)
found at http://aviationweather.gov/adds/metars/
 
KGON 250238Z 2503/2524 35004KT P6SM FEW045 
     FM251700 32013KT P6SM SKC